Sunnyside, Pennsylvania
Current Conditions -  °F | °C
As of 1:53 AM on Thursday 18 Dec 2014 (Local Time) from KSEG Reporting Station
Clear Clear  
Wind Chill: 25°   Ceiling: Unl
Heat Index: 33°   Visibility: 10mi
Dew Point: 20°   Wind: 10mph
Humidity: 59%   Direction: 270°W
Pressure: 30.04"   Gusts: 20mph
Location:  40.7842°N, 76.5797°W
Report Text: KSEG 180653Z AUTO 27009G17KT 10SM CLR 01/M07 A3004 RMK AO2 SLP176 T00061067
Loading
Personal Weather Stations






























Interactive Weather Map New forecast layout! Learn more

10-Day Weather Forecast

Advertisements
Track Severe Weather on mobile